Time;durP1;ratioP1;P1;durP2;ratioP2;P2;SDS_P1;SDS_P2;PMS_P1;PMS_P2;Temp;Humidity;BMP_temperature;BMP_pressure;BME280_temperature;BME280_humidity;BME280_pressure;Samples;Min_cycle;Max_cycle;Signal;HPM_P1;HPM_P2
2021/10/23 00:02:02;;;;;;;0.10;0.10;;;;;;;8.61;52.21;98739.27;115385;1217;137246;-84
2021/10/23 00:04:28;;;;;;;0.00;0.00;;;;;;;8.60;52.32;98749.80;115565;1217;22317;-83
2021/10/23 00:06:53;;;;;;;0.10;0.10;;;;;;;8.60;52.51;98748.41;115511;1216;136999;-83
2021/10/23 00:09:19;;;;;;;0.10;0.10;;;;;;;8.60;52.59;98751.57;115426;1212;137258;-84
2021/10/23 00:11:45;;;;;;;0.00;0.00;;;;;;;8.59;52.62;98753.20;115448;1217;137636;-84
2021/10/23 00:14:10;;;;;;;0.00;0.00;;;;;;;8.58;52.61;98756.20;115463;1217;137705;-84
2021/10/23 00:16:36;;;;;;;0.10;0.10;;;;;;;8.56;53.01;98758.17;115516;1217;23045;-84
2021/10/23 00:19:01;;;;;;;0.10;0.10;;;;;;;8.56;53.09;98764.18;115440;1217;137702;-84
2021/10/23 00:21:27;;;;;;;0.00;0.00;;;;;;;8.55;53.26;98761.67;115457;1217;137500;-84
2021/10/23 00:23:52;;;;;;;0.10;0.10;;;;;;;8.53;53.24;98759.94;115495;1202;137579;-84
2021/10/23 00:26:18;;;;;;;0.00;0.00;;;;;;;8.50;53.61;98759.99;115447;1217;137438;-84
2021/10/23 00:28:43;;;;;;;0.10;0.10;;;;;;;8.49;53.50;98761.04;115478;1217;22189;-84
2021/10/23 00:31:10;;;;;;;0.10;0.10;;;;;;;8.48;53.80;98758.75;115478;1217;137168;-83
2021/10/23 00:33:36;;;;;;;0.10;0.10;;;;;;;8.46;53.90;98755.07;115465;1213;137211;-84
2021/10/23 00:36:02;;;;;;;0.00;0.00;;;;;;;8.45;54.21;98757.44;115471;1213;137213;-84
2021/10/23 00:38:27;;;;;;;0.00;0.00;;;;;;;8.44;54.42;98759.96;115450;1218;138381;-83
2021/10/23 00:40:53;;;;;;;0.10;0.10;;;;;;;8.42;54.21;98758.77;115583;1217;22304;-84
2021/10/23 00:43:19;;;;;;;0.10;0.10;;;;;;;8.40;54.20;98763.92;115468;1213;137749;-83
2021/10/23 00:45:45;;;;;;;0.00;0.00;;;;;;;8.39;54.40;98767.76;115432;1216;137501;-84
2021/10/23 00:48:11;;;;;;;0.10;0.10;;;;;;;8.38;54.37;98768.64;115469;1217;137385;-83
2021/10/23 00:50:37;;;;;;;0.00;0.00;;;;;;;8.36;54.46;98762.95;115473;1203;137506;-83
2021/10/23 00:53:03;;;;;;;0.00;0.00;;;;;;;8.35;54.44;98763.78;115438;1216;137566;-84
2021/10/23 00:55:29;;;;;;;0.00;0.00;;;;;;;8.34;54.35;98758.98;115583;1213;22264;-84
2021/10/23 00:57:54;;;;;;;0.00;0.00;;;;;;;8.31;54.21;98760.98;115418;1216;137198;-83
2021/10/23 01:00:20;;;;;;;0.00;0.00;;;;;;;8.29;54.12;98763.16;115398;1213;137645;-84
2021/10/23 01:02:46;;;;;;;0.10;0.10;;;;;;;8.27;54.48;98759.32;115450;1216;137681;-84
2021/10/23 01:05:11;;;;;;;0.10;0.10;;;;;;;8.26;54.32;98762.23;115484;1216;137431;-84
2021/10/23 01:07:37;;;;;;;0.10;0.10;;;;;;;8.25;54.67;98763.25;115525;1217;23130;-84
2021/10/23 01:10:09;;;;;;;0.00;0.00;;;;;;;8.25;54.52;98776.83;115422;1217;137404;-83
2021/10/23 01:12:35;;;;;;;0.10;0.10;;;;;;;8.25;54.56;98776.66;115462;1216;137264;-84
2021/10/23 01:15:22;;;;;;;0.10;0.10;;;;;;;8.24;54.63;98777.84;115475;1217;137529;-84
2021/10/23 01:17:48;;;;;;;0.10;0.10;;;;;;;8.23;54.73;98777.98;115474;1212;137491;-84
2021/10/23 01:20:14;;;;;;;0.00;0.00;;;;;;;8.21;54.39;98777.40;115483;1216;137353;-83
2021/10/23 01:22:40;;;;;;;0.10;0.10;;;;;;;8.20;54.63;98785.30;115470;1217;23013;-84
2021/10/23 01:25:06;;;;;;;0.10;0.10;;;;;;;8.20;54.82;98784.66;115476;1213;137269;-84
2021/10/23 01:27:32;;;;;;;0.10;0.10;;;;;;;8.19;54.91;98789.28;115408;1217;137474;-83
2021/10/23 01:29:57;;;;;;;0.10;0.10;;;;;;;8.19;54.82;98788.11;115480;1217;137401;-84
2021/10/23 01:32:23;;;;;;;0.10;0.10;;;;;;;8.18;54.96;98792.41;115422;1217;137475;-85
2021/10/23 01:34:48;;;;;;;0.20;0.20;;;;;;;8.16;54.56;98798.46;115534;1215;22284;-85
2021/10/23 01:37:15;;;;;;;0.10;0.10;;;;;;;8.16;54.79;98800.69;115464;1212;137155;-85
2021/10/23 01:39:41;;;;;;;0.00;0.00;;;;;;;8.15;54.77;98801.51;115511;1217;137271;-84
2021/10/23 01:42:06;;;;;;;0.10;0.10;;;;;;;8.12;54.52;98805.33;115476;1217;137502;-84
2021/10/23 01:44:34;;;;;;;0.10;0.10;;;;;;;8.11;54.79;98808.88;115481;1217;137479;-84
2021/10/23 01:47:02;;;;;;;0.10;0.10;;;;;;;8.10;54.84;98810.17;115585;1217;22197;-84
2021/10/23 01:49:28;;;;;;;0.10;0.10;;;;;;;8.09;54.95;98808.23;115605;1216;23092;-84
2021/10/23 01:51:54;;;;;;;0.10;0.10;;;;;;;8.09;54.77;98813.55;115436;1217;137237;-84
2021/10/23 01:54:21;;;;;;;0.00;0.00;;;;;;;8.09;54.83;98814.68;115465;1217;137317;-84
2021/10/23 01:56:47;;;;;;;0.10;0.10;;;;;;;8.08;54.90;98814.36;115520;1216;137116;-85
2021/10/23 01:59:12;;;;;;;0.10;0.10;;;;;;;8.08;55.07;98813.40;115463;1217;138063;-84
2021/10/23 02:01:38;;;;;;;0.10;0.10;;;;;;;8.08;55.34;98814.55;115597;1215;22329;-84
2021/10/23 02:04:05;;;;;;;0.00;0.00;;;;;;;8.07;55.38;98811.75;115467;1217;137111;-85
2021/10/23 02:06:32;;;;;;;0.10;0.10;;;;;;;8.06;55.11;98818.16;115437;1216;137443;-85
2021/10/23 02:08:58;;;;;;;0.10;0.10;;;;;;;8.05;55.50;98816.48;115464;1213;137296;-84
2021/10/23 02:11:24;;;;;;;0.10;0.10;;;;;;;8.03;55.34;98814.31;115465;1216;137452;-84
2021/10/23 02:13:50;;;;;;;0.10;0.10;;;;;;;8.01;55.27;98814.59;115578;1215;22186;-84
2021/10/23 02:16:16;;;;;;;0.10;0.10;;;;;;;7.99;55.13;98809.52;115486;1217;138046;-84
2021/10/23 02:18:41;;;;;;;0.10;0.10;;;;;;;7.98;55.55;98809.80;115488;1217;137379;-85
2021/10/23 02:21:08;;;;;;;0.10;0.10;;;;;;;7.96;55.33;98814.31;115479;1217;137776;-85
2021/10/23 02:23:34;;;;;;;0.10;0.10;;;;;;;7.94;55.28;98811.77;115485;1216;137991;-85
2021/10/23 02:26:00;;;;;;;0.00;0.00;;;;;;;7.91;55.55;98819.14;115581;1213;22331;-84
2021/10/23 02:28:25;;;;;;;0.10;0.10;;;;;;;7.89;55.50;98824.77;115489;1213;137274;-85
2021/10/23 02:30:51;;;;;;;0.10;0.10;;;;;;;7.87;55.49;98830.15;115494;1213;137548;-85
2021/10/23 02:33:17;;;;;;;0.10;0.10;;;;;;;7.85;55.39;98835.69;115487;1217;137606;-85
2021/10/23 02:35:43;;;;;;;0.10;0.10;;;;;;;7.84;55.77;98834.47;115480;1212;137535;-85
2021/10/23 02:38:10;;;;;;;0.10;0.10;;;;;;;7.82;55.64;98835.44;115452;1214;137707;-85
2021/10/23 02:40:37;;;;;;;0.20;0.20;;;;;;;7.80;55.75;98838.14;115576;1216;22155;-85
2021/10/23 02:43:03;;;;;;;0.10;0.10;;;;;;;7.80;55.76;98840.08;115465;1202;137253;-85
2021/10/23 02:45:29;;;;;;;0.10;0.10;;;;;;;7.79;55.78;98841.10;115491;1217;137407;-85
2021/10/23 02:47:55;;;;;;;0.00;0.00;;;;;;;7.77;55.38;98844.38;115473;1216;137426;-85
2021/10/23 02:50:21;;;;;;;0.10;0.10;;;;;;;7.77;55.49;98841.16;115497;1212;138276;-85
2021/10/23 02:52:46;;;;;;;0.10;0.10;;;;;;;7.76;55.45;98845.41;115561;1217;22802;-83
2021/10/23 02:55:12;;;;;;;0.00;0.00;;;;;;;7.75;55.56;98845.91;115467;1216;137324;-83
2021/10/23 02:57:38;;;;;;;0.00;0.00;;;;;;;7.75;55.49;98854.32;115408;1217;137899;-84
2021/10/23 03:00:06;;;;;;;0.10;0.10;;;;;;;7.74;55.36;98848.86;115444;1217;137249;-84
2021/10/23 03:02:32;;;;;;;0.10;0.10;;;;;;;7.72;55.59;98855.46;115368;1217;137575;-83
2021/10/23 03:05:02;;;;;;;0.00;0.00;;;;;;;7.71;55.58;98854.61;115548;1217;22156;-84
2021/10/23 03:07:27;;;;;;;0.10;0.10;;;;;;;7.70;55.45;98858.46;115599;1216;22151;-84
2021/10/23 03:09:53;;;;;;;0.10;0.10;;;;;;;7.69;55.71;98860.56;115484;1216;136964;-84
2021/10/23 03:12:18;;;;;;;0.10;0.10;;;;;;;7.68;55.57;98863.04;115472;1212;137421;-84
2021/10/23 03:14:44;;;;;;;0.00;0.00;;;;;;;7.68;55.57;98861.71;115527;1213;137400;-84
2021/10/23 03:17:10;;;;;;;0.00;0.00;;;;;;;7.67;55.84;98868.33;115411;1213;137444;-84
2021/10/23 03:19:35;;;;;;;0.00;0.00;;;;;;;7.66;55.79;98870.61;115572;1217;22802;-84
2021/10/23 03:22:01;;;;;;;0.10;0.10;;;;;;;7.65;56.05;98877.90;115435;1213;137164;-85
2021/10/23 03:24:26;;;;;;;0.00;0.00;;;;;;;7.65;55.89;98881.23;115493;1212;137218;-85
2021/10/23 03:26:52;;;;;;;0.00;0.00;;;;;;;7.64;55.76;98884.40;115480;1217;137139;-84
2021/10/23 03:29:17;;;;;;;0.10;0.10;;;;;;;7.63;56.06;98887.80;115480;1212;137343;-84
2021/10/23 03:31:43;;;;;;;0.10;0.10;;;;;;;7.61;55.90;98886.95;115521;1217;22331;-84
2021/10/23 03:34:08;;;;;;;0.10;0.10;;;;;;;7.59;55.89;98888.30;115487;1216;137125;-84
2021/10/23 03:36:35;;;;;;;0.10;0.10;;;;;;;7.57;56.20;98893.39;115377;1216;137278;-84
2021/10/23 03:39:03;;;;;;;0.10;0.10;;;;;;;7.57;55.97;98893.71;115511;1216;137231;-84
2021/10/23 03:41:28;;;;;;;0.00;0.00;;;;;;;7.56;56.09;98891.05;115489;1213;138345;-84
2021/10/23 03:43:54;;;;;;;0.00;0.00;;;;;;;7.55;56.04;98895.81;115627;1211;22253;-83
2021/10/23 03:46:20;;;;;;;0.10;0.10;;;;;;;7.52;56.09;98892.19;115466;1213;137042;-83
2021/10/23 03:48:45;;;;;;;0.10;0.10;;;;;;;7.51;56.28;98894.29;115425;1215;137210;-84
2021/10/23 03:51:11;;;;;;;0.10;0.10;;;;;;;7.48;56.24;98892.64;115466;1217;137213;-84
2021/10/23 03:53:36;;;;;;;0.00;0.00;;;;;;;7.46;56.38;98895.87;115443;1216;137615;-84
2021/10/23 03:56:02;;;;;;;0.00;0.00;;;;;;;7.45;56.21;98896.30;115399;1217;137341;-84
2021/10/23 03:58:27;;;;;;;0.10;0.10;;;;;;;7.42;56.27;98900.75;115626;1216;22269;-84
2021/10/23 04:00:53;;;;;;;0.10;0.10;;;;;;;7.42;56.18;98906.27;115464;1217;137011;-84
2021/10/23 04:03:18;;;;;;;0.10;0.10;;;;;;;7.40;56.32;98904.85;115461;1213;137376;-85
2021/10/23 04:05:44;;;;;;;0.00;0.00;;;;;;;7.38;56.16;98908.55;115488;1217;137509;-85
2021/10/23 04:08:10;;;;;;;0.00;0.00;;;;;;;7.36;56.27;98910.64;115458;1216;138030;-85
2021/10/23 04:10:36;;;;;;;0.10;0.10;;;;;;;7.34;56.40;98910.39;115625;1215;22248;-84
2021/10/23 04:13:02;;;;;;;0.00;0.00;;;;;;;7.33;56.44;98910.42;115385;1213;137260;-84
2021/10/23 04:15:27;;;;;;;0.00;0.00;;;;;;;7.32;56.33;98912.16;115382;1218;137569;-84
2021/10/23 04:17:52;;;;;;;0.00;0.00;;;;;;;7.30;56.40;98917.99;115401;1214;137458;-84
2021/10/23 04:20:18;;;;;;;0.00;0.00;;;;;;;7.28;56.56;98922.03;115463;1217;137442;-84
2021/10/23 04:22:44;;;;;;;0.10;0.10;;;;;;;7.27;56.36;98919.20;115528;1214;22273;-83
2021/10/23 04:25:09;;;;;;;0.00;0.00;;;;;;;7.27;56.45;98920.16;115403;1215;137505;-84
2021/10/23 04:27:35;;;;;;;0.10;0.10;;;;;;;7.26;56.58;98916.20;115441;1218;138087;-84
2021/10/23 04:30:00;;;;;;;0.10;0.10;;;;;;;7.24;56.61;98918.52;115439;1217;137698;-84
2021/10/23 04:32:26;;;;;;;0.10;0.10;;;;;;;7.22;56.92;98920.13;115493;1217;137590;-84
2021/10/23 04:34:52;;;;;;;0.10;0.10;;;;;;;7.21;56.75;98923.99;115567;1216;22379;-84
2021/10/23 04:37:17;;;;;;;0.00;0.00;;;;;;;7.19;56.82;98921.21;115469;1217;137030;-84
2021/10/23 04:39:43;;;;;;;0.00;0.00;;;;;;;7.17;56.90;98919.92;115401;1216;137694;-85
2021/10/23 04:42:08;;;;;;;0.00;0.00;;;;;;;7.17;57.00;98925.03;115451;1216;137317;-84
2021/10/23 04:44:34;;;;;;;0.10;0.10;;;;;;;7.15;56.73;98925.08;115454;1217;138212;-84
2021/10/23 04:46:59;;;;;;;0.10;0.10;;;;;;;7.13;56.87;98925.73;115552;1218;22127;-85
2021/10/23 04:49:25;;;;;;;0.00;0.00;;;;;;;7.13;57.07;98933.01;115450;1213;136933;-85
2021/10/23 04:51:51;;;;;;;0.00;0.00;;;;;;;7.12;57.16;98931.58;115311;1216;137489;-85
2021/10/23 04:54:16;;;;;;;0.00;0.00;;;;;;;7.10;57.06;98930.88;115411;1218;137261;-84
2021/10/23 04:56:42;;;;;;;0.00;0.00;;;;;;;7.09;57.12;98935.80;115302;1218;137634;-84
2021/10/23 04:59:08;;;;;;;0.10;0.10;;;;;;;7.07;57.22;98932.17;115400;1218;137343;-84
2021/10/23 05:02:03;;;;;;;0.00;0.00;;;;;;;7.06;57.01;98940.46;115493;1218;22359;-84
2021/10/23 05:04:29;;;;;;;0.00;0.00;;;;;;;7.05;56.90;98945.30;115517;1213;22221;-84
2021/10/23 05:06:55;;;;;;;0.00;0.00;;;;;;;7.03;57.07;98941.65;115394;1218;137295;-85
2021/10/23 05:09:21;;;;;;;0.00;0.00;;;;;;;7.01;57.21;98945.69;115422;1218;137241;-84
2021/10/23 05:11:47;;;;;;;0.00;0.00;;;;;;;6.99;57.12;98946.11;115447;1212;137401;-85
2021/10/23 05:14:12;;;;;;;0.00;0.00;;;;;;;6.97;57.32;98949.88;115458;1217;137678;-84
2021/10/23 05:16:38;;;;;;;0.00;0.00;;;;;;;6.95;57.03;98949.60;115615;1212;22245;-84
2021/10/23 05:19:03;;;;;;;0.10;0.10;;;;;;;6.94;57.25;98950.77;115448;1216;136970;-84
2021/10/23 05:21:29;;;;;;;0.00;0.00;;;;;;;6.94;57.28;98953.52;115531;1216;137321;-84
2021/10/23 05:23:57;;;;;;;0.10;0.10;;;;;;;6.94;57.12;98957.27;115487;1210;137376;-84
2021/10/23 05:26:22;;;;;;;0.00;0.00;;;;;;;6.94;57.16;98960.41;115473;1213;137497;-85
2021/10/23 05:28:48;;;;;;;0.10;0.10;;;;;;;6.94;57.48;98961.48;115590;1216;22174;-85
2021/10/23 05:31:13;;;;;;;0.00;0.00;;;;;;;6.95;57.40;98968.73;115489;1216;137294;-84
2021/10/23 05:33:39;;;;;;;0.00;0.00;;;;;;;6.95;57.46;98974.98;115477;1213;137449;-85
2021/10/23 05:36:04;;;;;;;0.10;0.10;;;;;;;6.95;57.55;98980.23;115505;1217;137673;-84
2021/10/23 05:38:30;;;;;;;0.00;0.00;;;;;;;6.95;57.26;98982.84;115467;1217;137895;-84
2021/10/23 05:40:56;;;;;;;0.00;0.00;;;;;;;6.95;57.57;98987.40;115573;1216;22380;-84
2021/10/23 05:43:22;;;;;;;0.10;0.10;;;;;;;6.96;57.66;98991.22;115515;1217;138113;-85
2021/10/23 05:45:48;;;;;;;0.00;0.00;;;;;;;6.96;57.79;98993.67;115409;1213;137298;-85
2021/10/23 05:48:14;;;;;;;0.10;0.10;;;;;;;6.97;57.73;98998.60;115432;1217;137513;-85
2021/10/23 05:50:40;;;;;;;0.00;0.00;;;;;;;6.97;57.47;99005.45;115469;1217;137723;-85
2021/10/23 05:53:06;;;;;;;0.00;0.00;;;;;;;6.98;57.57;99015.45;115399;1217;138297;-84
2021/10/23 05:55:31;;;;;;;0.00;0.00;;;;;;;6.99;57.52;99020.10;115598;1202;22117;-85
2021/10/23 05:57:56;;;;;;;0.00;0.00;;;;;;;7.00;57.34;99021.25;115421;1217;137158;-85
2021/10/23 06:00:22;;;;;;;0.00;0.00;;;;;;;7.02;57.53;99019.63;115455;1213;137464;-85
2021/10/23 06:02:48;;;;;;;0.10;0.10;;;;;;;7.03;57.60;99019.04;115454;1217;137663;-85
2021/10/23 06:05:14;;;;;;;0.10;0.10;;;;;;;7.05;58.03;99022.25;115458;1217;137420;-84
2021/10/23 06:07:42;;;;;;;0.00;0.00;;;;;;;7.08;57.76;99025.73;115581;1215;22267;-83
2021/10/23 06:10:10;;;;;;;0.00;0.00;;;;;;;7.10;57.47;99026.84;115443;1212;137548;-84
2021/10/23 06:12:37;;;;;;;0.10;0.10;;;;;;;7.13;57.49;99033.80;115497;1213;137380;-84
2021/10/23 06:15:04;;;;;;;0.00;0.00;;;;;;;7.18;57.49;99042.58;115423;1217;137391;-84
2021/10/23 06:17:30;;;;;;;0.10;0.10;;;;;;;7.21;57.46;99043.98;115459;1212;137580;-82
2021/10/23 06:19:56;;;;;;;0.10;0.10;;;;;;;7.27;57.61;99046.59;115570;1217;22146;-82
2021/10/23 06:22:22;;;;;;;0.10;0.10;;;;;;;7.32;57.39;99051.50;115444;1217;138398;-84
2021/10/23 06:24:47;;;;;;;0.10;0.10;;;;;;;7.37;57.31;99062.59;115503;1217;137346;-83
2021/10/23 06:27:13;;;;;;;0.10;0.10;;;;;;;7.43;57.19;99065.96;115447;1217;137527;-84
2021/10/23 06:29:39;;;;;;;0.10;0.10;;;;;;;7.46;57.41;99068.14;115418;1216;138158;-84
2021/10/23 06:32:05;;;;;;;0.00;0.00;;;;;;;7.51;56.91;99072.91;115403;1217;137599;-83
2021/10/23 06:34:30;;;;;;;0.10;0.10;;;;;;;7.58;57.31;99073.64;115558;1215;22297;-84
2021/10/23 06:36:56;;;;;;;0.00;0.00;;;;;;;7.64;56.88;99073.99;115417;1213;137346;-85
2021/10/23 06:39:23;;;;;;;0.10;0.10;;;;;;;7.69;56.99;99075.69;115474;1212;136854;-83
2021/10/23 06:41:49;;;;;;;0.20;0.20;;;;;;;7.76;56.73;99085.86;115364;1209;137367;-84
2021/10/23 06:44:14;;;;;;;0.00;0.00;;;;;;;7.84;56.72;99093.17;115473;1217;138926;-84
2021/10/23 06:46:40;;;;;;;0.10;0.10;;;;;;;7.93;56.66;99101.61;115551;1217;23018;-84
2021/10/23 06:49:10;;;;;;;0.10;0.10;;;;;;;8.02;56.43;99108.61;115467;1217;137916;-85
2021/10/23 06:51:37;;;;;;;0.10;0.10;;;;;;;8.10;56.18;99107.51;115469;1217;137476;-84
2021/10/23 06:54:04;;;;;;;0.10;0.10;;;;;;;8.17;56.25;99113.60;115442;1217;137813;-86
2021/10/23 06:57:14;;;;;;;0.00;0.00;;;;;;;8.25;56.25;99122.64;115458;1213;137756;-87
2021/10/23 07:00:00;;;;;;;0.10;0.10;;;;;;;8.35;55.86;99131.45;115471;1217;139196;-83
2021/10/23 07:02:25;;;;;;;0.00;0.00;;;;;;;8.44;55.91;99133.89;115485;1217;137737;-83
2021/10/23 07:04:51;;;;;;;0.10;0.10;;;;;;;8.52;55.65;99134.71;115536;1212;22267;-84
2021/10/23 07:07:16;;;;;;;0.10;0.10;;;;;;;8.61;55.77;99136.70;115402;1217;137020;-82
2021/10/23 07:09:42;;;;;;;0.10;0.10;;;;;;;8.70;55.40;99144.06;115458;1217;137572;-83
2021/10/23 07:12:09;;;;;;;0.00;0.00;;;;;;;8.79;55.38;99147.70;115429;1217;138748;-84
2021/10/23 07:14:34;;;;;;;0.10;0.10;;;;;;;8.89;55.15;99148.88;115428;1215;137632;-83
2021/10/23 07:17:00;;;;;;;0.10;0.10;;;;;;;8.99;54.94;99153.91;115564;1212;22378;-83
2021/10/23 07:19:25;;;;;;;0.10;0.10;;;;;;;9.09;54.88;99149.86;115426;1217;137542;-83
2021/10/23 07:21:51;;;;;;;0.10;0.10;;;;;;;9.18;54.68;99150.92;115457;1217;137978;-82
2021/10/23 07:24:20;;;;;;;0.10;0.10;;;;;;;9.28;54.59;99160.09;115417;1217;137261;-82
2021/10/23 07:26:47;;;;;;;0.10;0.10;;;;;;;9.37;54.30;99153.19;115410;1214;137738;-85
2021/10/23 07:29:15;;;;;;;0.10;0.10;;;;;;;9.47;54.15;99159.61;115401;1213;137429;-83
2021/10/23 07:31:41;;;;;;;0.10;0.10;;;;;;;9.58;54.31;99161.39;115491;1213;22964;-84
2021/10/23 07:34:07;;;;;;;0.10;0.10;;;;;;;9.69;53.90;99163.17;115442;1214;137130;-84
2021/10/23 07:36:33;;;;;;;0.10;0.10;;;;;;;9.78;53.79;99167.06;115523;1212;137303;-83
2021/10/23 07:38:58;;;;;;;0.10;0.10;;;;;;;9.88;53.41;99169.83;115435;1217;137741;-84
2021/10/23 07:41:24;;;;;;;0.10;0.10;;;;;;;9.97;53.22;99175.55;115435;1217;138043;-83
2021/10/23 07:43:49;;;;;;;0.10;0.10;;;;;;;10.05;53.05;99180.34;115531;1217;22228;-84
2021/10/23 07:46:15;;;;;;;0.10;0.10;;;;;;;10.17;53.10;99180.22;115432;1217;137479;-84
2021/10/23 07:48:42;;;;;;;0.10;0.10;;;;;;;10.27;52.96;99184.22;115443;1216;138078;-83
2021/10/23 07:51:09;;;;;;;0.10;0.10;;;;;;;10.38;52.70;99186.52;115447;1216;137699;-83
2021/10/23 07:53:35;;;;;;;0.10;0.10;;;;;;;10.49;52.24;99187.14;115496;1217;137815;-83
2021/10/23 07:56:01;;;;;;;0.10;0.10;;;;;;;10.60;52.17;99186.26;115551;1217;137749;-83
2021/10/23 07:58:27;;;;;;;0.10;0.10;;;;;;;10.70;51.87;99187.99;115584;1215;22160;-84
2021/10/23 08:00:53;;;;;;;0.10;0.10;;;;;;;10.83;51.71;99184.77;115490;1216;137702;-83
2021/10/23 08:03:22;;;;;;;0.10;0.10;;;;;;;10.95;51.50;99189.75;115488;1217;137605;-84
2021/10/23 08:05:48;;;;;;;0.10;0.10;;;;;;;11.08;50.86;99185.25;115493;1217;137889;-83
2021/10/23 08:08:14;;;;;;;0.10;0.10;;;;;;;11.17;50.53;99190.09;115486;1216;137788;-83
2021/10/23 08:10:40;;;;;;;0.10;0.10;;;;;;;11.26;50.54;99184.66;115539;1217;22276;-83
2021/10/23 08:13:05;;;;;;;0.10;0.10;;;;;;;11.38;50.41;99183.40;115499;1214;137845;-82
2021/10/23 08:15:33;;;;;;;0.10;0.10;;;;;;;11.51;50.16;99179.67;115440;1216;137689;-83
2021/10/23 08:17:59;;;;;;;0.10;0.10;;;;;;;11.64;49.95;99182.80;115428;1217;137704;-83
2021/10/23 08:20:31;;;;;;;0.10;0.10;;;;;;;11.79;49.66;99181.52;115485;1215;138039;-83
2021/10/23 08:22:57;;;;;;;0.10;0.10;;;;;;;11.96;49.49;99184.42;115530;1217;22335;-82
2021/10/23 08:25:23;;;;;;;0.20;0.20;;;;;;;12.11;49.28;99186.61;115254;1212;138129;-82
2021/10/23 08:27:48;;;;;;;0.20;0.20;;;;;;;12.26;49.11;99189.62;115417;1211;138445;-81
2021/10/23 08:30:16;;;;;;;0.10;0.10;;;;;;;12.43;48.85;99188.10;115486;1212;137582;-82
2021/10/23 08:32:43;;;;;;;0.20;0.20;;;;;;;12.55;48.34;99189.65;115462;1216;138300;-81
2021/10/23 08:35:15;;;;;;;0.10;0.10;;;;;;;12.64;48.06;99196.36;115457;1214;138694;-82
2021/10/23 08:37:42;;;;;;;0.20;0.20;;;;;;;12.79;47.89;99197.41;115521;1217;22370;-83
2021/10/23 08:40:09;;;;;;;0.10;0.10;;;;;;;12.92;47.21;99194.48;115423;1217;137750;-82
2021/10/23 08:42:35;;;;;;;0.10;0.10;;;;;;;13.04;47.11;99191.46;115484;1215;138064;-83
2021/10/23 08:45:04;;;;;;;0.20;0.20;;;;;;;13.14;46.90;99197.27;115436;1212;138431;-83
2021/10/23 08:47:30;;;;;;;0.20;0.20;;;;;;;13.19;46.65;99195.60;115480;1216;137990;-83
2021/10/23 08:50:20;;;;;;;0.20;0.20;;;;;;;13.28;46.60;99200.72;115563;1213;22354;-84
2021/10/23 08:52:48;;;;;;;0.20;0.20;;;;;;;13.37;46.40;99195.25;115533;1212;22176;-83
2021/10/23 08:55:17;;;;;;;0.20;0.20;;;;;;;13.56;46.24;99200.70;115467;1214;137646;-83
2021/10/23 08:57:46;;;;;;;0.20;0.20;;;;;;;13.78;45.89;99202.36;115427;1217;138010;-84
2021/10/23 09:00:13;;;;;;;0.20;0.20;;;;;;;13.98;45.43;99206.55;115534;1217;138095;-83
2021/10/23 09:02:39;;;;;;;0.20;0.20;;;;;;;14.10;45.11;99209.29;115424;1217;138103;-83
2021/10/23 09:05:07;;;;;;;0.20;0.20;;;;;;;14.23;44.46;99209.17;115456;1217;137832;-84
2021/10/23 09:07:39;;;;;;;0.20;0.20;;;;;;;14.29;44.26;99211.73;115548;1216;22306;-84
2021/10/23 09:10:06;;;;;;;0.20;0.20;;;;;;;14.30;44.01;99207.33;115484;1215;137868;-83
2021/10/23 09:12:33;;;;;;;0.20;0.20;;;;;;;14.38;43.76;99206.92;115444;1217;138141;-83
2021/10/23 09:15:10;;;;;;;0.20;0.20;;;;;;;14.52;43.69;99205.10;115426;1214;137790;-82
2021/10/23 09:17:40;;;;;;;0.20;0.20;;;;;;;14.63;42.72;99207.71;115434;1218;137928;-83
2021/10/23 09:20:12;;;;;;;0.20;0.20;;;;;;;14.77;43.12;99209.52;115419;1218;138220;-83
2021/10/23 09:22:42;;;;;;;0.20;0.20;;;;;;;14.82;42.94;99209.02;115566;1218;22356;-83
2021/10/23 09:25:16;;;;;;;0.30;0.30;;;;;;;14.83;42.30;99219.77;115334;1212;137543;-83
2021/10/23 09:27:47;;;;;;;0.10;0.10;;;;;;;14.97;42.04;99218.64;115400;1218;138067;-83
2021/10/23 09:30:15;;;;;;;0.20;0.20;;;;;;;15.14;41.82;99221.73;115356;1218;137563;-83
2021/10/23 09:32:49;;;;;;;0.30;0.30;;;;;;;15.30;41.65;99222.08;115422;1214;137970;-84
2021/10/23 09:35:17;;;;;;;0.20;0.20;;;;;;;15.42;41.19;99220.45;115449;1218;137750;-83
2021/10/23 09:37:44;;;;;;;0.20;0.20;;;;;;;15.57;41.19;99217.15;115490;1218;22367;-84
2021/10/23 09:40:15;;;;;;;0.20;0.20;;;;;;;15.72;40.93;99216.86;115297;1216;138029;-84
2021/10/23 09:42:43;;;;;;;0.30;0.30;;;;;;;15.78;39.58;99212.79;115399;1218;137693;-84
2021/10/23 09:45:09;;;;;;;0.10;0.10;;;;;;;15.83;39.89;99213.23;115394;1212;137778;-84
2021/10/23 09:47:46;;;;;;;0.20;0.20;;;;;;;15.90;39.61;99213.02;115411;1216;138357;-84
2021/10/23 09:50:20;;;;;;;0.20;0.20;;;;;;;15.99;39.51;99223.17;115414;1216;138704;-84
2021/10/23 09:53:02;;;;;;;0.30;0.30;;;;;;;16.06;39.52;99223.05;115432;1218;22743;-84
2021/10/23 09:55:48;;;;;;;0.20;0.20;;;;;;;16.23;39.10;99222.27;115401;1218;137614;-83
2021/10/23 09:58:22;;;;;;;0.30;0.30;;;;;;;16.45;38.67;99219.52;115407;1218;137709;-81
2021/10/23 10:00:50;;;;;;;0.20;0.20;;;;;;;16.69;38.55;99212.70;115302;1214;138005;-84
2021/10/23 10:03:18;;;;;;;0.20;0.20;;;;;;;16.90;38.22;99209.80;115298;1219;138095;-84
2021/10/23 10:05:46;;;;;;;0.20;0.20;;;;;;;17.03;38.04;99202.83;115364;1218;138016;-84
2021/10/23 10:08:14;;;;;;;0.20;0.20;;;;;;;17.05;37.97;99205.96;115383;1218;137907;-85
2021/10/23 10:10:43;;;;;;;0.30;0.30;;;;;;;17.15;37.60;99199.70;115382;1219;22294;-83
2021/10/23 10:13:11;;;;;;;0.30;0.30;;;;;;;17.40;37.18;99201.77;115250;1217;137926;-82
2021/10/23 10:15:39;;;;;;;0.30;0.30;;;;;;;17.61;37.24;99197.14;115400;1217;138297;-82
2021/10/23 10:18:06;;;;;;;0.30;0.30;;;;;;;17.79;36.65;99194.87;115403;1217;139593;-83
2021/10/23 10:20:52;;;;;;;0.30;0.30;;;;;;;18.03;35.58;99193.04;115449;1217;137962;-84
2021/10/23 10:23:33;;;;;;;0.30;0.30;;;;;;;18.05;34.66;99191.55;115333;1202;137993;-83
2021/10/23 10:26:17;;;;;;;0.30;0.30;;;;;;;18.15;34.92;99195.36;115483;1217;22348;-84
2021/10/23 10:29:28;;;;;;;0.30;0.30;;;;;;;18.35;34.19;99188.30;115543;1217;22362;-83
2021/10/23 10:35:11;;;;;;;0.30;0.30;;;;;;;18.44;33.18;99194.90;115537;1209;22196;-85
2021/10/23 10:43:15;;;;;;;0.30;0.30;;;;;;;18.53;32.65;99197.02;115431;1217;137571;-84
2021/10/23 10:45:55;;;;;;;0.30;0.30;;;;;;;18.57;32.79;99196.08;115399;1217;137577;-83
2021/10/23 10:48:21;;;;;;;0.30;0.30;;;;;;;18.70;32.49;99199.92;115496;1213;137847;-84
2021/10/23 10:50:54;;;;;;;0.30;0.30;;;;;;;18.91;32.62;99192.79;115512;1209;137696;-84
2021/10/23 10:53:45;;;;;;;0.30;0.30;;;;;;;18.69;32.10;99194.50;115471;1216;137693;-84
2021/10/23 10:56:19;;;;;;;0.30;0.30;;;;;;;18.48;32.59;99198.67;115436;1217;137664;-83
2021/10/23 10:58:48;;;;;;;0.30;0.30;;;;;;;18.33;32.47;99201.11;115624;1216;22266;-83
2021/10/23 11:01:27;;;;;;;0.40;0.40;;;;;;;18.18;32.54;99199.42;115481;1217;137396;-83
2021/10/23 11:04:02;;;;;;;0.40;0.40;;;;;;;17.92;32.55;99206.05;115536;1213;137558;-83
2021/10/23 11:09:11;;;;;;;0.30;0.30;;;;;;;17.62;32.58;99201.63;115538;1217;137950;-83
2021/10/23 11:11:57;;;;;;;0.20;0.20;;;;;;;17.43;32.78;99207.65;115532;1213;137884;-83
2021/10/23 11:14:31;;;;;;;0.30;0.30;;;;;;;17.22;32.99;99201.60;115485;1217;137875;-83
2021/10/23 11:17:00;;;;;;;0.20;0.20;;;;;;;17.16;33.23;99195.54;115647;1216;22274;-83
2021/10/23 11:19:29;;;;;;;0.30;0.30;;;;;;;17.00;33.37;99192.33;115541;1217;137542;-83
2021/10/23 11:22:02;;;;;;;0.20;0.20;;;;;;;16.90;33.41;99193.42;115543;1213;137815;-83
2021/10/23 11:24:37;;;;;;;0.20;0.20;;;;;;;16.85;33.90;99198.45;115484;1213;138180;-83
2021/10/23 11:27:09;;;;;;;0.30;0.30;;;;;;;16.78;34.14;99200.25;115358;1213;137680;-83
2021/10/23 11:29:37;;;;;;;0.30;0.30;;;;;;;16.68;34.53;99205.76;115442;1217;137744;-83
2021/10/23 11:32:04;;;;;;;0.20;0.20;;;;;;;16.61;34.51;99211.77;115411;1216;137943;-81
2021/10/23 11:34:34;;;;;;;0.30;0.30;;;;;;;16.56;34.58;99213.34;115597;1217;22302;-82
2021/10/23 11:37:10;;;;;;;0.20;0.20;;;;;;;16.46;34.12;99209.33;115508;1217;138224;-82
2021/10/23 11:39:40;;;;;;;0.30;0.30;;;;;;;16.34;34.35;99209.38;115491;1217;137614;-83